Time;durP1;ratioP1;P1;durP2;ratioP2;P2;SDS_P1;SDS_P2;PMS_P1;PMS_P2;Temp;Humidity;BMP_temperature;BMP_pressure;BME280_temperature;BME280_humidity;BME280_pressure;Samples;Min_cycle;Max_cycle;Signal;HPM_P1;HPM_P2
2022/02/28 00:00:24;;;;;;;58.70;33.13;;;1.90;99.90;;;;;;5014604;28;20045;-56
2022/02/28 00:02:50;;;;;;;56.30;32.20;;;1.90;99.90;;;;;;5016696;28;20030;-56
2022/02/28 00:05:16;;;;;;;58.42;32.63;;;1.80;99.90;;;;;;5007309;28;20490;-56
2022/02/28 00:07:42;;;;;;;61.15;33.20;;;1.80;99.90;;;;;;5015663;28;20113;-56
2022/02/28 00:10:08;;;;;;;60.13;33.92;;;1.80;99.90;;;;;;5015805;28;20053;-57
2022/02/28 00:12:36;;;;;;;54.72;32.50;;;1.90;99.90;;;;;;5016992;28;20092;-57
2022/02/28 00:15:04;;;;;;;55.15;31.60;;;2.00;99.90;;;;;;5004590;28;20030;-57
2022/02/28 00:17:29;;;;;;;58.75;33.70;;;1.90;99.90;;;;;;5015708;28;20115;-56
2022/02/28 00:19:55;;;;;;;57.80;32.10;;;2.00;99.90;;;;;;5014740;28;20026;-55
2022/02/28 00:22:21;;;;;;;57.75;31.90;;;2.00;99.90;;;;;;5013714;28;20029;-52
2022/02/28 00:24:46;;;;;;;59.80;32.92;;;1.90;99.90;;;;;;5012675;28;20521;-55
2022/02/28 00:27:12;;;;;;;56.67;31.67;;;1.90;99.90;;;;;;5013335;28;20113;-57
2022/02/28 00:29:37;;;;;;;61.67;33.10;;;2.00;99.90;;;;;;5014719;28;20394;-53
2022/02/28 00:32:03;;;;;;;58.67;31.85;;;2.00;99.90;;;;;;5014560;28;20034;-56
2022/02/28 00:34:29;;;;;;;53.15;30.60;;;2.10;99.90;;;;;;5022125;28;20026;-55
2022/02/28 00:36:56;;;;;;;53.78;31.38;;;2.20;99.90;;;;;;5014360;28;20068;-56
2022/02/28 00:39:22;;;;;;;61.42;34.65;;;2.20;99.90;;;;;;5012471;28;20025;-54
2022/02/28 00:41:47;;;;;;;57.28;32.42;;;2.10;99.90;;;;;;5012658;28;20026;-54
2022/02/28 00:44:13;;;;;;;54.72;33.00;;;2.20;99.90;;;;;;4995556;28;20080;-54
2022/02/28 00:46:40;;;;;;;52.33;30.88;;;2.20;99.90;;;;;;5013619;28;20022;-54
2022/02/28 00:49:06;;;;;;;58.80;33.40;;;2.20;99.90;;;;;;5013802;28;20030;-56
2022/02/28 00:51:32;;;;;;;56.58;31.65;;;2.20;99.90;;;;;;5012974;28;20030;-55
2022/02/28 00:53:58;;;;;;;52.15;30.25;;;2.10;99.90;;;;;;5013426;28;20106;-53
2022/02/28 00:56:23;;;;;;;55.35;30.60;;;2.00;99.90;;;;;;5013397;28;20030;-54
2022/02/28 00:58:49;;;;;;;54.97;31.00;;;2.00;99.90;;;;;;5013262;28;20509;-55
2022/02/28 01:01:14;;;;;;;52.13;29.77;;;2.00;99.90;;;;;;5014037;28;20034;-56
2022/02/28 01:03:40;;;;;;;52.83;30.95;;;2.00;99.90;;;;;;5019712;28;20144;-53
2022/02/28 01:06:06;;;;;;;52.72;31.02;;;2.00;99.90;;;;;;5013888;28;20034;-56
2022/02/28 01:08:31;;;;;;;57.25;33.15;;;2.00;99.90;;;;;;5012284;28;20048;-52
2022/02/28 01:10:57;;;;;;;55.65;32.38;;;1.90;99.90;;;;;;5013135;28;20026;-56
2022/02/28 01:13:23;;;;;;;57.60;31.55;;;1.90;99.90;;;;;;5013026;28;20030;-52
2022/02/28 01:15:49;;;;;;;58.72;34.00;;;1.90;99.90;;;;;;4998372;28;20036;-50
2022/02/28 01:18:15;;;;;;;56.80;30.77;;;1.90;99.90;;;;;;5013006;28;20041;-52
2022/02/28 01:20:41;;;;;;;58.15;31.55;;;2.00;99.90;;;;;;5013304;28;20049;-54
2022/02/28 01:23:06;;;;;;;54.30;31.25;;;2.00;99.90;;;;;;5012829;28;20030;-55
2022/02/28 01:25:32;;;;;;;54.92;31.10;;;2.00;99.90;;;;;;5013533;28;20041;-54
2022/02/28 01:27:58;;;;;;;61.10;32.45;;;2.10;99.90;;;;;;4995937;28;20548;-51
2022/02/28 01:30:23;;;;;;;58.15;34.47;;;2.10;99.90;;;;;;5013142;28;20037;-55
2022/02/28 01:32:49;;;;;;;57.47;32.95;;;2.00;99.90;;;;;;5012885;28;20428;-54
2022/02/28 01:35:15;;;;;;;55.83;30.92;;;1.90;99.90;;;;;;5004264;28;20179;-52
2022/02/28 01:37:41;;;;;;;53.53;31.08;;;2.00;99.90;;;;;;5012973;28;20117;-56
2022/02/28 01:40:10;;;;;;;55.53;30.52;;;2.00;99.90;;;;;;5012821;28;20034;-58
2022/02/28 01:42:35;;;;;;;53.50;29.95;;;1.90;99.90;;;;;;5012765;28;20038;-55
2022/02/28 01:45:01;;;;;;;54.72;31.85;;;2.00;99.90;;;;;;5012757;28;20508;-56
2022/02/28 01:47:27;;;;;;;53.25;29.98;;;1.90;99.90;;;;;;5013130;28;20736;-56
2022/02/28 01:49:52;;;;;;;54.33;30.63;;;1.90;99.90;;;;;;4997713;28;20433;-54
2022/02/28 01:52:18;;;;;;;55.78;29.85;;;2.00;99.90;;;;;;5016742;28;20040;-54
2022/02/28 01:54:45;;;;;;;56.70;31.25;;;1.90;99.90;;;;;;5016690;28;20050;-51
2022/02/28 01:57:11;;;;;;;59.88;32.25;;;1.80;99.90;;;;;;5016588;28;20033;-57
2022/02/28 01:59:37;;;;;;;58.20;33.47;;;1.60;99.90;;;;;;5016808;28;20108;-56
2022/02/28 02:02:03;;;;;;;56.15;30.10;;;1.40;99.90;;;;;;5017309;28;20452;-55
2022/02/28 02:04:29;;;;;;;58.38;30.92;;;1.40;99.90;;;;;;5016963;28;20141;-56
2022/02/28 02:06:54;;;;;;;55.42;31.60;;;1.50;99.90;;;;;;5016297;28;20038;-57
2022/02/28 02:09:20;;;;;;;59.97;32.72;;;1.60;99.90;;;;;;5016270;28;20022;-53
2022/02/28 02:11:46;;;;;;;59.00;31.90;;;1.70;99.90;;;;;;5016551;28;20069;-57
2022/02/28 02:14:12;;;;;;;57.42;29.52;;;1.90;99.90;;;;;;5016412;28;20018;-54
2022/02/28 02:16:39;;;;;;;54.78;29.40;;;2.00;99.90;;;;;;5016449;28;20034;-55
2022/02/28 02:19:05;;;;;;;56.53;30.25;;;2.00;99.90;;;;;;5016496;28;20045;-54
2022/02/28 02:21:31;;;;;;;52.92;30.67;;;2.10;99.90;;;;;;5016515;28;20080;-56
2022/02/28 02:23:57;;;;;;;54.20;31.77;;;2.10;99.90;;;;;;5016350;28;20590;-56
2022/02/28 02:26:22;;;;;;;54.35;31.42;;;2.20;99.90;;;;;;5016105;28;20032;-55
2022/02/28 02:28:48;;;;;;;53.30;31.80;;;2.10;99.90;;;;;;5015986;28;20389;-54
2022/02/28 02:31:13;;;;;;;56.25;31.80;;;2.10;99.90;;;;;;5015954;28;20050;-54
2022/02/28 02:33:39;;;;;;;55.97;32.40;;;2.10;99.90;;;;;;5015852;28;20088;-53
2022/02/28 02:36:06;;;;;;;58.85;32.53;;;2.10;99.90;;;;;;5015876;28;20080;-56
2022/02/28 02:38:35;;;;;;;58.15;31.90;;;2.20;99.90;;;;;;5016655;28;20025;-54
2022/02/28 02:41:03;;;;;;;58.13;31.55;;;2.10;99.90;;;;;;5016274;28;20125;-56
2022/02/28 02:43:29;;;;;;;61.20;33.85;;;2.10;99.90;;;;;;5015918;28;20125;-57
2022/02/28 02:45:54;;;;;;;55.15;30.73;;;2.10;99.90;;;;;;5016002;28;20073;-57
2022/02/28 02:48:22;;;;;;;57.10;32.15;;;2.10;99.90;;;;;;5015475;28;20486;-55
2022/02/28 02:50:48;;;;;;;54.88;30.92;;;2.10;99.90;;;;;;5015302;28;20030;-56
2022/02/28 02:53:14;;;;;;;56.25;30.92;;;2.00;99.90;;;;;;5015483;28;20080;-53
2022/02/28 02:55:40;;;;;;;60.60;31.40;;;1.90;99.90;;;;;;5015179;28;20421;-55
2022/02/28 02:58:06;;;;;;;62.00;32.75;;;1.90;99.90;;;;;;5015387;28;20076;-54
2022/02/28 03:00:34;;;;;;;62.65;33.42;;;1.90;99.90;;;;;;5014703;28;20038;-55
2022/02/28 03:03:00;;;;;;;62.08;32.65;;;1.80;99.90;;;;;;5015202;28;20037;-57
2022/02/28 03:05:25;;;;;;;62.20;33.40;;;1.90;99.90;;;;;;4997850;28;20030;-54
2022/02/28 03:07:51;;;;;;;62.53;34.25;;;1.80;99.90;;;;;;5016018;28;20034;-56
2022/02/28 03:10:16;;;;;;;62.60;34.47;;;1.70;99.90;;;;;;5015737;28;20397;-56
2022/02/28 03:12:42;;;;;;;65.45;35.08;;;1.70;99.90;;;;;;5015956;28;20108;-56
2022/02/28 03:15:09;;;;;;;67.97;34.78;;;1.70;99.90;;;;;;5014854;28;20045;-55
2022/02/28 03:17:34;;;;;;;67.22;36.40;;;1.70;99.90;;;;;;5016130;28;20038;-56
2022/02/28 03:20:00;;;;;;;74.53;37.45;;;1.70;99.90;;;;;;5016029;28;20036;-55
2022/02/28 03:22:26;;;;;;;73.30;37.60;;;1.60;99.90;;;;;;5015389;28;20037;-58
2022/02/28 03:24:52;;;;;;;67.18;36.22;;;1.60;99.90;;;;;;5016438;28;20532;-57
2022/02/28 03:27:17;;;;;;;77.60;40.40;;;1.40;99.90;;;;;;5016093;28;20095;-55
2022/02/28 03:29:43;;;;;;;81.68;41.00;;;1.30;99.90;;;;;;5014814;28;20102;-55
2022/02/28 03:32:08;;;;;;;80.63;39.05;;;1.20;99.90;;;;;;5014899;28;20049;-57
2022/02/28 03:34:34;;;;;;;81.03;39.47;;;1.20;99.90;;;;;;5024408;28;20037;-57
2022/02/28 03:37:00;;;;;;;79.07;40.17;;;1.10;99.90;;;;;;5015821;28;20044;-57
2022/02/28 03:39:26;;;;;;;82.32;39.85;;;1.10;99.90;;;;;;5015527;28;20530;-52
2022/02/28 03:41:53;;;;;;;82.78;39.05;;;1.20;99.90;;;;;;5014885;28;20028;-55
2022/02/28 03:44:19;;;;;;;88.05;41.95;;;1.20;99.90;;;;;;5014780;28;20034;-55
2022/02/28 03:46:45;;;;;;;84.72;39.58;;;1.20;99.90;;;;;;5015213;28;20049;-54
2022/02/28 03:49:11;;;;;;;80.22;40.83;;;1.20;99.90;;;;;;5014955;28;20075;-56
2022/02/28 03:51:36;;;;;;;83.00;40.58;;;1.30;99.90;;;;;;5015214;28;20034;-54
2022/02/28 03:54:02;;;;;;;81.05;39.50;;;1.40;99.90;;;;;;5014184;28;20030;-57
2022/02/28 03:56:27;;;;;;;80.50;38.75;;;1.40;99.90;;;;;;5014296;28;20109;-56
2022/02/28 03:58:53;;;;;;;77.40;39.08;;;1.50;99.90;;;;;;5015224;28;20033;-55
2022/02/28 04:01:19;;;;;;;81.97;39.38;;;1.50;99.90;;;;;;5014900;28;20536;-54
2022/02/28 04:03:44;;;;;;;84.70;42.30;;;1.50;99.90;;;;;;5014119;28;20042;-56
2022/02/28 04:06:10;;;;;;;89.68;42.72;;;1.60;99.90;;;;;;5014721;28;20037;-55
2022/02/28 04:08:36;;;;;;;84.20;40.42;;;1.50;99.90;;;;;;5014578;28;20040;-55
2022/02/28 04:11:02;;;;;;;93.95;43.75;;;1.50;99.90;;;;;;5014890;28;20108;-56
2022/02/28 04:13:28;;;;;;;88.05;43.55;;;1.50;99.90;;;;;;4996525;28;20077;-57
2022/02/28 04:15:53;;;;;;;88.13;43.33;;;1.40;99.90;;;;;;5013654;28;20546;-52
2022/02/28 04:18:19;;;;;;;91.82;43.03;;;1.30;99.90;;;;;;5014735;28;20390;-57
2022/02/28 04:20:47;;;;;;;90.93;45.63;;;1.30;99.90;;;;;;5018241;28;20049;-55
2022/02/28 04:23:12;;;;;;;94.65;45.28;;;1.30;99.90;;;;;;5017345;28;20034;-56
2022/02/28 04:25:38;;;;;;;95.57;44.75;;;1.40;99.90;;;;;;5018145;28;20688;-55
2022/02/28 04:28:04;;;;;;;94.80;47.55;;;1.50;99.90;;;;;;5014971;28;20068;-55
2022/02/28 04:30:29;;;;;;;91.97;45.90;;;1.50;99.90;;;;;;5016149;28;20113;-56
2022/02/28 04:32:55;;;;;;;91.10;46.50;;;1.60;99.90;;;;;;5017126;28;20030;-53
2022/02/28 04:35:22;;;;;;;93.13;45.42;;;1.60;99.90;;;;;;5024947;28;20402;-53
2022/02/28 04:37:47;;;;;;;87.07;43.83;;;1.50;99.90;;;;;;5015005;28;20478;-57
2022/02/28 04:40:13;;;;;;;92.75;46.58;;;1.40;99.90;;;;;;5015043;28;20048;-54
2022/02/28 04:42:39;;;;;;;92.50;45.78;;;1.20;99.90;;;;;;5014585;28;20038;-55
2022/02/28 04:45:06;;;;;;;89.80;44.72;;;1.20;99.90;;;;;;5000366;28;20098;-57
2022/02/28 04:47:31;;;;;;;95.00;47.45;;;1.30;99.90;;;;;;5033264;28;20029;-55
2022/02/28 04:49:57;;;;;;;90.72;43.83;;;1.40;99.90;;;;;;5015843;28;20086;-54
2022/02/28 04:52:23;;;;;;;96.10;47.65;;;1.40;99.90;;;;;;5016397;28;20112;-56
2022/02/28 04:54:48;;;;;;;91.20;46.45;;;1.50;99.90;;;;;;5033226;28;20107;-55
2022/02/28 04:57:14;;;;;;;95.05;47.65;;;1.60;99.90;;;;;;5033212;28;20044;-57
2022/02/28 04:59:41;;;;;;;87.95;43.72;;;1.60;99.90;;;;;;5032946;28;20036;-54
2022/02/28 05:02:07;;;;;;;84.78;44.70;;;1.70;99.90;;;;;;5032590;28;20780;-53
2022/02/28 05:04:32;;;;;;;87.55;44.60;;;1.70;99.90;;;;;;5032578;28;20056;-54
2022/02/28 05:06:58;;;;;;;82.00;43.92;;;1.60;99.90;;;;;;5032535;28;20079;-54
2022/02/28 05:09:23;;;;;;;80.75;43.35;;;1.60;99.90;;;;;;5032734;28;20136;-54
2022/02/28 05:11:49;;;;;;;86.72;45.47;;;1.60;99.90;;;;;;5032713;28;20036;-52
2022/02/28 05:14:14;;;;;;;85.40;45.17;;;1.70;99.90;;;;;;5032932;28;20125;-54
2022/02/28 05:16:41;;;;;;;96.05;46.70;;;1.70;99.90;;;;;;5033034;28;20025;-55
2022/02/28 05:19:07;;;;;;;86.43;44.35;;;1.80;99.90;;;;;;5032673;28;20568;-54
2022/02/28 05:21:34;;;;;;;85.55;43.65;;;1.90;99.90;;;;;;5032777;28;20038;-57
2022/02/28 05:24:00;;;;;;;87.30;42.72;;;2.00;99.90;;;;;;5032492;28;20037;-57
2022/02/28 05:26:26;;;;;;;90.97;44.80;;;2.00;99.90;;;;;;5033127;28;20049;-58
2022/02/28 05:28:52;;;;;;;89.03;46.08;;;2.00;99.90;;;;;;5033372;28;20082;-55
2022/02/28 05:31:17;;;;;;;84.68;43.05;;;1.90;99.90;;;;;;5015754;28;20080;-55
2022/02/28 05:33:43;;;;;;;83.72;42.90;;;1.90;99.90;;;;;;5033078;28;20037;-54
2022/02/28 05:36:08;;;;;;;84.60;43.35;;;1.90;99.90;;;;;;5020824;28;20481;-54
2022/02/28 05:38:34;;;;;;;87.70;44.22;;;2.00;99.90;;;;;;5014129;28;20038;-54
2022/02/28 05:41:00;;;;;;;82.75;41.78;;;2.00;99.90;;;;;;5013092;28;20057;-54
2022/02/28 05:43:26;;;;;;;88.20;44.70;;;2.00;99.90;;;;;;5012699;28;20052;-55
2022/02/28 05:45:52;;;;;;;82.32;42.58;;;2.00;99.90;;;;;;5012970;28;20025;-56
2022/02/28 05:48:17;;;;;;;85.07;44.03;;;1.90;99.90;;;;;;4995659;28;20033;-52
2022/02/28 05:50:43;;;;;;;86.28;43.95;;;1.90;99.90;;;;;;5013412;28;20037;-52
2022/02/28 05:53:09;;;;;;;74.40;41.30;;;1.90;99.90;;;;;;5013605;28;20668;-57
2022/02/28 05:55:36;;;;;;;79.25;40.70;;;1.80;99.90;;;;;;5013403;28;20033;-56
2022/02/28 05:58:03;;;;;;;80.75;42.90;;;1.70;99.90;;;;;;5013818;28;20034;-54
2022/02/28 06:00:29;;;;;;;81.18;42.33;;;1.60;99.90;;;;;;5013222;28;20034;-55
2022/02/28 06:02:54;;;;;;;78.22;42.38;;;1.60;99.90;;;;;;5013014;28;20041;-53
2022/02/28 06:05:20;;;;;;;79.45;41.25;;;1.60;99.90;;;;;;5012773;28;20394;-55
2022/02/28 06:07:46;;;;;;;81.07;40.13;;;1.70;99.90;;;;;;5013067;28;20038;-56
2022/02/28 06:10:12;;;;;;;75.18;40.42;;;1.70;99.90;;;;;;5013351;28;20030;-55
2022/02/28 06:12:37;;;;;;;79.20;40.83;;;1.70;99.90;;;;;;5013509;28;20375;-56
2022/02/28 06:15:03;;;;;;;75.03;39.72;;;1.80;99.90;;;;;;5024076;28;20535;-55
2022/02/28 06:17:29;;;;;;;73.72;39.40;;;1.90;99.90;;;;;;5032288;28;20033;-56
2022/02/28 06:19:55;;;;;;;78.20;42.53;;;1.90;99.90;;;;;;5031621;28;20056;-53
2022/02/28 06:22:21;;;;;;;78.75;43.58;;;1.80;99.90;;;;;;5032920;28;20513;-55
2022/02/28 06:24:46;;;;;;;79.30;41.55;;;1.70;99.90;;;;;;5033329;28;20036;-57
2022/02/28 06:27:12;;;;;;;79.47;41.47;;;1.70;99.90;;;;;;5033111;28;20045;-54
2022/02/28 06:29:39;;;;;;;82.50;42.38;;;1.70;99.90;;;;;;5015509;28;20025;-56
2022/02/28 06:32:06;;;;;;;75.50;41.80;;;1.70;99.90;;;;;;5018688;28;20116;-55
2022/02/28 06:34:31;;;;;;;85.22;43.10;;;1.70;99.90;;;;;;5011176;28;20034;-57
2022/02/28 06:36:58;;;;;;;88.57;43.85;;;1.70;99.90;;;;;;5013821;28;20641;-54
2022/02/28 06:39:25;;;;;;;80.68;42.55;;;1.70;99.90;;;;;;4998541;28;20081;-55
2022/02/28 06:41:51;;;;;;;82.03;42.75;;;1.60;99.90;;;;;;5015268;28;20044;-52
2022/02/28 06:44:17;;;;;;;86.40;44.72;;;1.60;99.90;;;;;;5014708;28;20396;-54
2022/02/28 06:46:43;;;;;;;88.10;44.38;;;1.40;99.90;;;;;;5016152;28;20650;-55
2022/02/28 06:49:09;;;;;;;90.38;43.60;;;1.40;99.90;;;;;;5019416;28;20041;-57
2022/02/28 06:51:34;;;;;;;82.13;41.13;;;1.50;99.90;;;;;;5040533;28;20038;-57
2022/02/28 06:54:00;;;;;;;85.50;41.58;;;1.50;99.90;;;;;;5040970;28;20424;-54
2022/02/28 06:56:25;;;;;;;86.15;42.95;;;1.50;99.90;;;;;;5039352;28;20427;-57
2022/02/28 06:58:51;;;;;;;92.68;47.15;;;1.50;99.90;;;;;;5041246;28;20049;-57
2022/02/28 07:01:16;;;;;;;82.93;43.53;;;1.50;99.90;;;;;;5040280;28;20037;-57
2022/02/28 07:03:43;;;;;;;83.03;41.60;;;1.40;99.90;;;;;;5037500;28;20460;-55
2022/02/28 07:06:11;;;;;;;82.03;41.53;;;1.40;99.90;;;;;;5039944;28;20041;-55
2022/02/28 07:08:38;;;;;;;89.82;41.63;;;1.50;99.90;;;;;;5038029;28;20059;-52
2022/02/28 07:11:04;;;;;;;87.18;41.25;;;1.60;99.90;;;;;;5024823;28;20406;-57
2022/02/28 07:13:31;;;;;;;79.22;40.33;;;1.70;99.90;;;;;;5016006;28;20057;-55
2022/02/28 07:15:57;;;;;;;85.57;41.65;;;1.60;99.90;;;;;;5034463;28;20041;-53
2022/02/28 07:18:23;;;;;;;88.93;43.08;;;1.60;99.90;;;;;;5035190;28;20553;-56
2022/02/28 07:20:51;;;;;;;85.43;40.60;;;1.70;99.90;;;;;;5036186;28;20106;-54
2022/02/28 07:23:16;;;;;;;82.85;43.40;;;1.80;99.90;;;;;;5034407;28;20393;-51
2022/02/28 07:25:42;;;;;;;80.82;40.00;;;1.80;99.90;;;;;;5035407;28;20045;-56
2022/02/28 07:28:08;;;;;;;86.50;42.88;;;1.70;99.90;;;;;;5034909;28;20033;-54
2022/02/28 07:30:33;;;;;;;87.70;42.95;;;1.60;99.90;;;;;;5018008;28;20545;-55
2022/02/28 07:32:59;;;;;;;91.15;42.03;;;1.50;99.90;;;;;;5017717;28;20489;-54
2022/02/28 07:35:25;;;;;;;77.60;40.03;;;1.50;99.90;;;;;;5001783;28;20034;-53
2022/02/28 07:37:50;;;;;;;89.53;43.13;;;1.60;99.90;;;;;;5014981;28;20030;-56
2022/02/28 07:40:16;;;;;;;82.90;41.47;;;1.60;99.90;;;;;;5015052;28;20034;-52
2022/02/28 07:42:42;;;;;;;86.50;41.75;;;1.60;99.90;;;;;;5015558;28;20120;-55
2022/02/28 07:45:08;;;;;;;90.95;43.70;;;1.60;99.90;;;;;;5014675;28;20030;-55
2022/02/28 07:47:48;;;;;;;94.78;46.33;;;1.80;99.90;;;;;;5014621;28;20030;-56
2022/02/28 07:50:14;;;;;;;86.45;39.25;;;1.80;99.90;;;;;;4997350;28;20040;-55
2022/02/28 07:52:39;;;;;;;84.22;41.25;;;1.80;99.90;;;;;;5014864;28;20041;-52
2022/02/28 07:55:06;;;;;;;77.13;38.85;;;1.70;99.90;;;;;;5028502;28;20029;-52
2022/02/28 07:57:32;;;;;;;87.05;42.70;;;1.80;99.90;;;;;;5035475;28;20047;-55
2022/02/28 07:59:57;;;;;;;87.53;42.70;;;1.70;99.90;;;;;;5034578;28;20025;-57
2022/02/28 08:02:24;;;;;;;85.13;40.95;;;1.80;99.90;;;;;;5031447;28;20555;-55
2022/02/28 08:04:50;;;;;;;78.25;38.33;;;1.80;99.90;;;;;;5015031;28;20046;-57
2022/02/28 08:07:15;;;;;;;78.63;38.53;;;1.70;99.90;;;;;;5015194;28;20205;-57
2022/02/28 08:09:41;;;;;;;78.38;38.83;;;1.70;99.90;;;;;;5027898;28;20049;-56
2022/02/28 08:12:07;;;;;;;78.65;38.30;;;1.80;99.90;;;;;;5016703;28;20026;-54
2022/02/28 08:14:32;;;;;;;78.15;37.42;;;1.80;99.90;;;;;;5016408;28;20736;-54
2022/02/28 08:16:58;;;;;;;73.07;37.10;;;1.80;99.90;;;;;;5034707;28;20037;-54
2022/02/28 08:19:23;;;;;;;74.60;36.65;;;1.80;99.90;;;;;;5033879;28;20025;-54
2022/02/28 08:21:49;;;;;;;90.85;38.60;;;1.80;99.90;;;;;;5035486;28;20151;-58
2022/02/28 08:24:15;;;;;;;77.50;37.72;;;1.70;99.90;;;;;;5033603;28;20064;-55
2022/02/28 08:26:41;;;;;;;84.18;37.42;;;1.70;99.90;;;;;;5029933;28;20490;-56
2022/02/28 08:29:07;;;;;;;78.68;38.50;;;1.70;99.90;;;;;;5012901;28;20030;-58
2022/02/28 08:31:33;;;;;;;75.20;39.30;;;1.80;99.90;;;;;;5014821;28;20038;-58
2022/02/28 08:33:58;;;;;;;79.50;38.08;;;2.00;99.90;;;;;;5017941;28;20021;-51
2022/02/28 08:36:24;;;;;;;83.30;39.38;;;2.00;99.90;;;;;;5014415;28;20053;-55
2022/02/28 08:38:51;;;;;;;73.22;37.08;;;2.10;99.90;;;;;;5013713;28;20073;-57
2022/02/28 08:41:17;;;;;;;78.65;37.90;;;2.10;99.90;;;;;;5013709;28;20065;-55
2022/02/28 08:43:43;;;;;;;80.40;37.45;;;1.90;99.90;;;;;;5014416;28;20429;-57
2022/02/28 08:46:08;;;;;;;81.40;39.90;;;1.80;99.90;;;;;;5014112;28;20433;-56
2022/02/28 08:48:35;;;;;;;77.05;35.42;;;1.70;99.90;;;;;;5014327;28;20034;-54
2022/02/28 08:51:01;;;;;;;73.55;36.28;;;1.80;99.90;;;;;;5012069;28;20482;-57
2022/02/28 08:53:26;;;;;;;88.43;37.65;;;1.80;99.90;;;;;;5014102;28;20045;-57
2022/02/28 08:55:52;;;;;;;76.50;37.17;;;1.90;99.90;;;;;;5013416;28;20436;-56
2022/02/28 08:58:18;;;;;;;71.10;37.00;;;1.90;99.90;;;;;;5012981;28;20030;-56
2022/02/28 09:00:43;;;;;;;75.43;37.10;;;2.00;99.90;;;;;;5013860;28;20061;-54
2022/02/28 09:03:09;;;;;;;94.50;39.92;;;2.00;99.90;;;;;;4996551;28;20550;-56
2022/02/28 09:05:35;;;;;;;81.25;40.03;;;2.00;99.90;;;;;;5014064;28;20041;-53
2022/02/28 09:08:01;;;;;;;88.72;41.70;;;2.00;99.90;;;;;;5013801;28;20470;-55
2022/02/28 09:10:26;;;;;;;71.20;38.53;;;2.10;99.90;;;;;;5013235;28;20032;-56
2022/02/28 09:12:52;;;;;;;83.75;39.17;;;2.20;99.90;;;;;;5013515;28;20743;-57
2022/02/28 09:15:18;;;;;;;71.72;38.20;;;2.20;99.90;;;;;;5015933;28;20037;-52
2022/02/28 09:17:44;;;;;;;62.35;35.72;;;2.10;99.90;;;;;;5010907;28;20049;-56
2022/02/28 09:20:10;;;;;;;68.82;35.60;;;2.00;99.90;;;;;;5010330;28;20042;-55
2022/02/28 09:22:36;;;;;;;85.00;37.65;;;2.00;99.90;;;;;;5012462;28;20040;-57
2022/02/28 09:25:01;;;;;;;69.50;35.88;;;2.00;99.90;;;;;;5012573;28;20064;-58
2022/02/28 09:27:27;;;;;;;64.93;34.53;;;2.00;99.90;;;;;;5013183;28;20545;-54
2022/02/28 09:29:53;;;;;;;65.93;36.60;;;2.10;99.90;;;;;;5011463;28;20030;-56
2022/02/28 09:32:19;;;;;;;65.13;34.13;;;2.20;99.90;;;;;;5013280;28;20498;-55
2022/02/28 09:34:44;;;;;;;62.90;31.08;;;2.20;99.90;;;;;;4998068;28;20117;-54
2022/02/28 09:37:10;;;;;;;54.85;31.10;;;2.30;99.90;;;;;;5011580;28;20041;-53
2022/02/28 09:39:36;;;;;;;52.35;29.50;;;2.30;99.90;;;;;;5010332;28;20545;-51
2022/02/28 09:42:02;;;;;;;73.72;33.80;;;2.30;99.90;;;;;;5013242;28;20026;-54
2022/02/28 09:44:29;;;;;;;61.38;32.42;;;2.40;99.90;;;;;;5013511;28;20026;-56
2022/02/28 09:46:56;;;;;;;53.50;30.30;;;2.50;99.90;;;;;;5003684;28;20037;-54
2022/02/28 09:49:22;;;;;;;55.78;31.73;;;2.50;99.90;;;;;;5012929;28;20410;-54
2022/02/28 09:51:47;;;;;;;58.63;31.77;;;2.60;99.90;;;;;;5006927;28;20033;-54
2022/02/28 09:54:13;;;;;;;53.55;31.63;;;2.70;99.90;;;;;;5013290;28;20076;-55
2022/02/28 09:56:39;;;;;;;53.95;30.95;;;2.70;99.90;;;;;;5013306;28;20048;-54
2022/02/28 09:59:05;;;;;;;55.65;32.50;;;2.60;99.90;;;;;;5013798;28;20129;-55
2022/02/28 10:01:31;;;;;;;51.60;32.30;;;2.30;99.90;;;;;;5013718;28;20061;-52
2022/02/28 10:03:56;;;;;;;62.25;31.60;;;2.10;99.90;;;;;;5014173;28;20490;-56
2022/02/28 10:06:24;;;;;;;60.20;31.25;;;2.00;99.90;;;;;;5012202;28;20451;-52
2022/02/28 10:08:52;;;;;;;58.08;31.58;;;2.10;99.90;;;;;;5010416;28;20089;-55
2022/02/28 10:11:24;;;;;;;60.10;30.35;;;2.20;99.90;;;;;;5023190;28;20676;-55
2022/02/28 10:13:51;;;;;;;50.72;29.35;;;2.50;99.90;;;;;;5020421;28;20397;-55
2022/02/28 10:16:36;;;;;;;49.80;28.98;;;2.60;99.90;;;;;;5017035;28;20030;-57
2022/02/28 10:19:06;;;;;;;55.50;30.58;;;2.70;99.90;;;;;;5035140;28;20025;-56
2022/02/28 10:21:45;;;;;;;51.33;29.58;;;2.70;99.90;;;;;;5016015;28;20119;-55
2022/02/28 10:24:17;;;;;;;62.63;30.67;;;2.90;99.90;;;;;;5021958;28;20499;-57
2022/02/28 10:26:48;;;;;;;50.58;29.55;;;2.90;99.90;;;;;;5016588;28;20030;-56
2022/02/28 10:29:17;;;;;;;51.53;28.67;;;2.90;99.90;;;;;;4991803;28;20042;-55
2022/02/28 10:31:45;;;;;;;42.50;26.88;;;3.00;99.90;;;;;;5015668;28;20057;-59
2022/02/28 10:34:18;;;;;;;53.38;28.15;;;3.00;99.90;;;;;;5016551;28;20109;-57
2022/02/28 10:36:59;;;;;;;54.15;28.15;;;3.00;99.90;;;;;;5017012;28;20037;-55
2022/02/28 10:39:35;;;;;;;44.15;25.50;;;3.00;99.90;;;;;;5016821;28;20444;-56
2022/02/28 10:42:14;;;;;;;48.08;27.10;;;3.00;99.90;;;;;;5016406;28;20124;-56
2022/02/28 10:44:41;;;;;;;46.05;27.23;;;3.10;99.90;;;;;;4999181;28;20417;-56
2022/02/28 10:47:09;;;;;;;53.30;28.45;;;3.20;99.90;;;;;;5016149;28;20120;-56
2022/02/28 10:49:36;;;;;;;48.72;28.02;;;3.20;99.90;;;;;;5016492;28;20026;-53
2022/02/28 10:52:09;;;;;;;41.40;27.48;;;3.30;99.90;;;;;;5016726;28;20041;-54
2022/02/28 10:54:42;;;;;;;51.70;28.20;;;3.20;99.90;;;;;;5016232;28;20026;-57
2022/02/28 10:57:20;;;;;;;46.45;26.58;;;3.30;99.90;;;;;;5016112;28;20030;-52
2022/02/28 10:59:56;;;;;;;44.80;26.40;;;3.30;99.90;;;;;;5015816;28;20334;-56
2022/02/28 11:02:33;;;;;;;78.55;29.23;;;3.20;99.90;;;;;;4983778;28;20042;-57
2022/02/28 11:05:15;;;;;;;55.63;28.05;;;3.30;99.90;;;;;;5015604;28;20034;-56
2022/02/28 11:07:43;;;;;;;43.83;25.60;;;3.60;99.90;;;;;;5016273;28;20487;-56
2022/02/28 11:10:10;;;;;;;48.33;26.75;;;3.70;99.90;;;;;;5016178;28;20375;-54
2022/02/28 11:12:35;;;;;;;40.30;27.13;;;3.80;99.90;;;;;;5016365;28;20034;-57
2022/02/28 11:15:07;;;;;;;38.95;24.73;;;3.70;99.90;;;;;;5016330;28;20113;-56
2022/02/28 11:17:34;;;;;;;41.05;26.33;;;3.90;99.90;;;;;;5001688;28;20513;-56
2022/02/28 11:20:06;;;;;;;41.13;24.77;;;3.90;99.90;;;;;;5020959;28;20052;-55
2022/02/28 11:22:32;;;;;;;46.78;25.52;;;4.20;99.90;;;;;;5033499;28;20033;-55
2022/02/28 11:24:58;;;;;;;45.63;27.15;;;4.20;99.90;;;;;;5022554;28;20088;-53
2022/02/28 11:27:25;;;;;;;41.55;25.17;;;4.50;99.90;;;;;;5015644;28;20029;-55
2022/02/28 11:29:55;;;;;;;41.58;25.55;;;4.70;99.90;;;;;;5015069;28;20022;-56
2022/02/28 11:32:23;;;;;;;41.30;24.13;;;4.70;99.90;;;;;;5016104;28;20061;-53
2022/02/28 11:34:50;;;;;;;40.50;24.73;;;4.70;99.90;;;;;;5011865;28;20052;-54
2022/02/28 11:37:25;;;;;;;42.70;24.73;;;4.80;99.90;;;;;;5014189;28;20060;-56
2022/02/28 11:40:00;;;;;;;39.53;23.27;;;4.90;99.90;;;;;;5013187;28;20041;-57
2022/02/28 11:43:02;;;;;;;37.28;24.55;;;4.90;99.90;;;;;;5013815;28;20034;-55
2022/02/28 11:45:30;;;;;;;40.25;25.83;;;4.80;99.80;;;;;;5035190;28;20022;-52
2022/02/28 11:48:18;;;;;;;49.58;25.73;;;4.70;99.90;;;;;;5014033;28;20030;-55
2022/02/28 11:50:48;;;;;;;36.88;24.23;;;4.80;99.90;;;;;;5014493;28;20026;-53
2022/02/28 11:53:32;;;;;;;41.83;25.38;;;4.80;99.90;;;;;;5014911;28;20025;-55
2022/02/28 11:55:58;;;;;;;39.83;25.88;;;5.10;99.90;;;;;;5015423;28;20116;-57
2022/02/28 11:58:26;;;;;;;36.85;24.75;;;5.10;99.80;;;;;;5013898;28;20065;-56
2022/02/28 13:45:12;;;;;;;32.55;18.25;;;8.20;86.30;;;;;;5014440;28;20466;-54
2022/02/28 13:47:39;;;;;;;27.20;17.85;;;8.30;86.40;;;;;;5000022;28;20054;-53
2022/02/28 13:50:07;;;;;;;27.35;17.20;;;8.30;85.40;;;;;;5017526;28;20030;-54
2022/02/28 13:52:34;;;;;;;22.67;15.40;;;8.60;85.60;;;;;;5016705;28;20034;-58
2022/02/28 13:55:02;;;;;;;25.75;17.67;;;8.90;83.50;;;;;;5017181;28;20458;-53
2022/02/28 13:57:33;;;;;;;34.28;17.77;;;9.10;81.10;;;;;;5016898;28;20029;-53
2022/02/28 14:00:09;;;;;;;45.35;20.27;;;9.20;79.30;;;;;;5015483;28;20072;-55
2022/02/28 14:02:55;;;;;;;28.10;16.95;;;9.20;79.40;;;;;;4989739;28;20036;-55
2022/02/28 14:05:22;;;;;;;24.23;16.17;;;9.30;79.40;;;;;;5014273;28;20037;-55
2022/02/28 14:07:55;;;;;;;32.55;16.70;;;9.30;78.60;;;;;;4992337;28;20035;-53
2022/02/28 14:10:25;;;;;;;39.65;17.77;;;9.20;76.20;;;;;;5017442;28;20030;-51
2022/02/28 14:12:51;;;;;;;24.40;14.93;;;8.90;76.20;;;;;;5016814;28;20034;-57
2022/02/28 14:15:25;;;;;;;25.00;15.55;;;9.00;76.40;;;;;;5015435;28;20026;-53
2022/02/28 14:17:55;;;;;;;33.67;15.52;;;9.10;75.20;;;;;;5016650;28;20120;-56